createdAt,value
2023-02-28T00:01:49.369Z,101615.27
2023-02-28T00:04:21.509Z,101609.16
2023-02-28T00:06:57.307Z,101614.36
2023-02-28T00:09:28.827Z,101612.23
2023-02-28T00:11:59.118Z,101604.02
2023-02-28T00:14:29.084Z,101610.50
2023-02-28T00:16:59.086Z,101611.31
2023-02-28T00:19:30.143Z,101605.18
2023-02-28T00:22:05.794Z,101608.72
2023-02-28T00:24:36.666Z,101612.55
2023-02-28T00:27:16.958Z,101602.23
2023-02-28T00:29:49.562Z,101602.25
2023-02-28T00:32:20.073Z,101611.38
2023-02-28T00:34:49.666Z,101611.81
2023-02-28T00:37:19.337Z,101605.64
2023-02-28T00:39:49.240Z,101601.38
2023-02-28T00:42:19.912Z,101598.36
2023-02-28T00:44:50.724Z,101597.05
2023-02-28T00:47:21.641Z,101597.05
2023-02-28T00:49:50.599Z,101594.02
2023-02-28T00:52:24.198Z,101596.53
2023-02-28T00:54:54.078Z,101595.73
2023-02-28T00:57:23.997Z,101595.31
2023-02-28T00:59:55.498Z,101592.34
2023-02-28T01:02:24.788Z,101592.34
2023-02-28T01:04:55.688Z,101591.48
2023-02-28T01:07:26.809Z,101597.42
2023-02-28T01:09:56.722Z,101596.23
2023-02-28T01:12:30.553Z,101594.03
2023-02-28T01:15:00.246Z,101597.92
2023-02-28T01:17:29.818Z,101596.19
2023-02-28T01:20:01.396Z,101590.13
2023-02-28T01:22:31.195Z,101591.42
2023-02-28T01:25:01.040Z,101593.16
2023-02-28T01:27:36.842Z,101599.65
2023-02-28T01:30:08.102Z,101590.11
2023-02-28T01:32:37.602Z,101595.80
2023-02-28T01:35:08.004Z,101597.48
2023-02-28T01:37:37.671Z,101593.57
2023-02-28T01:40:08.071Z,101596.61
2023-02-28T01:42:38.140Z,101591.84
2023-02-28T01:45:22.976Z,101594.08
2023-02-28T01:47:55.577Z,101587.03
2023-02-28T01:50:31.222Z,101594.02
2023-02-28T01:53:04.579Z,101595.75
2023-02-28T01:55:35.592Z,101587.09
2023-02-28T01:58:10.201Z,101587.53
2023-02-28T02:00:45.970Z,101588.88
2023-02-28T02:03:20.052Z,101588.88
2023-02-28T02:05:50.300Z,101583.61
2023-02-28T02:08:26.167Z,101591.39
2023-02-28T02:10:58.906Z,101586.56
2023-02-28T02:13:46.319Z,101586.56
2023-02-28T02:16:24.800Z,101593.13
2023-02-28T02:19:17.024Z,101581.28
2023-02-28T02:22:23.620Z,101586.43
2023-02-28T02:25:02.603Z,101582.23
2023-02-28T02:27:38.169Z,101581.28
2023-02-28T02:30:36.027Z,101583.55
2023-02-28T02:33:27.838Z,101580.59
2023-02-28T02:36:00.430Z,101573.59
2023-02-28T02:38:46.988Z,101586.22
2023-02-28T02:41:23.021Z,101582.77
2023-02-28T02:44:07.670Z,101570.64
2023-02-28T02:46:40.518Z,101573.67
2023-02-28T02:49:13.432Z,101580.58
2023-02-28T02:51:45.234Z,101573.92
2023-02-28T02:54:20.748Z,101575.66
2023-02-28T02:56:53.252Z,101570.57
2023-02-28T02:59:26.548Z,101574.52
2023-02-28T03:01:59.702Z,101572.80
2023-02-28T03:04:32.571Z,101576.64
2023-02-28T03:07:02.425Z,101571.88
2023-02-28T03:09:36.418Z,101574.91
2023-02-28T03:12:11.166Z,101570.13
2023-02-28T03:15:02.243Z,101575.78
2023-02-28T03:17:50.680Z,101576.70
2023-02-28T03:20:35.472Z,101573.66
2023-02-28T03:23:15.298Z,101577.52
2023-02-28T03:25:50.820Z,101578.44
2023-02-28T03:28:51.942Z,101576.19
2023-02-28T03:31:30.612Z,101572.28
2023-02-28T03:34:09.405Z,101581.89
2023-02-28T03:36:43.900Z,101587.36
2023-02-28T03:39:16.508Z,101583.98
2023-02-28T03:41:52.085Z,101584.00
2023-02-28T03:44:33.185Z,101593.13
2023-02-28T03:47:08.762Z,101591.84
2023-02-28T03:49:45.791Z,101600.06
2023-02-28T03:52:16.604Z,101595.30
2023-02-28T03:54:49.442Z,101597.89
2023-02-28T03:57:22.038Z,101589.23
2023-02-28T04:00:10.185Z,101592.73
2023-02-28T04:02:43.965Z,101600.98
2023-02-28T04:05:13.907Z,101600.73
2023-02-28T04:07:43.589Z,101595.98
2023-02-28T04:10:14.808Z,101604.33
2023-02-28T04:12:44.460Z,101603.94
2023-02-28T04:15:14.245Z,101605.68
2023-02-28T04:17:44.147Z,101599.01
2023-02-28T04:20:14.487Z,101604.22
2023-02-28T04:22:44.095Z,101605.05
2023-02-28T04:25:13.774Z,101605.62
2023-02-28T04:27:45.503Z,101614.28
2023-02-28T04:30:15.513Z,101617.75
2023-02-28T04:32:45.182Z,101618.59
2023-02-28T04:35:15.014Z,101616.01
2023-02-28T04:37:44.857Z,101619.05
2023-02-28T04:40:14.563Z,101613.33
2023-02-28T04:42:44.456Z,101613.38
2023-02-28T04:45:14.247Z,101620.34
2023-02-28T04:47:44.019Z,101611.56
2023-02-28T04:50:13.660Z,101614.58
2023-02-28T04:52:43.490Z,101619.45
2023-02-28T04:55:12.986Z,101622.92
2023-02-28T04:57:43.569Z,101623.37
2023-02-28T05:00:15.680Z,101621.25
2023-02-28T05:02:45.773Z,101619.09
2023-02-28T05:05:16.939Z,101618.25
2023-02-28T05:07:47.090Z,101624.65
2023-02-28T05:10:16.764Z,101617.52
2023-02-28T05:12:46.561Z,101625.74
2023-02-28T05:15:17.544Z,101620.26
2023-02-28T05:17:47.519Z,101623.34
2023-02-28T05:20:17.602Z,101629.86
2023-02-28T05:22:47.515Z,101629.03
2023-02-28T05:25:19.740Z,101633.72
2023-02-28T05:27:49.941Z,101620.69
2023-02-28T05:30:19.832Z,101632.02
2023-02-28T05:32:52.584Z,101638.19
2023-02-28T05:35:22.414Z,101628.00
2023-02-28T05:37:52.203Z,101627.59
2023-02-28T05:40:21.868Z,101630.72
2023-02-28T05:42:53.035Z,101622.82
2023-02-28T05:45:22.929Z,101641.52
2023-02-28T05:47:57.241Z,101643.75
2023-02-28T05:50:27.373Z,101648.46
2023-02-28T05:52:57.187Z,101659.77
2023-02-28T05:55:27.092Z,101654.56
2023-02-28T05:57:57.030Z,101655.44
2023-02-28T06:00:26.924Z,101661.49
2023-02-28T06:02:58.356Z,101661.93
2023-02-28T06:05:28.873Z,101661.50
2023-02-28T06:07:58.368Z,101662.79
2023-02-28T06:10:28.802Z,101669.28
2023-02-28T06:12:59.818Z,101670.97
2023-02-28T06:15:29.995Z,101671.39
2023-02-28T06:18:00.684Z,101676.16
2023-02-28T06:20:30.611Z,101676.14
2023-02-28T06:23:01.330Z,101682.64
2023-02-28T06:25:31.150Z,101683.48
2023-02-28T06:28:01.375Z,101679.41
2023-02-28T06:30:32.035Z,101664.17
2023-02-28T06:33:01.787Z,101688.53
2023-02-28T06:35:31.883Z,101696.30
2023-02-28T06:38:01.954Z,101700.16
2023-02-28T06:40:33.410Z,101700.96
2023-02-28T06:43:03.479Z,101694.35
2023-02-28T06:45:33.309Z,101704.13
2023-02-28T06:48:03.499Z,101696.22
2023-02-28T06:50:33.633Z,101695.30
2023-02-28T06:53:03.421Z,101696.15
2023-02-28T06:55:34.042Z,101702.53
2023-02-28T06:58:08.167Z,101705.37
2023-02-28T07:00:37.961Z,101697.13
2023-02-28T07:03:07.441Z,101696.50
2023-02-28T07:05:38.819Z,101694.08
2023-02-28T07:08:07.865Z,101694.08
2023-02-28T07:10:39.945Z,101701.77
2023-02-28T07:13:10.454Z,101698.86
2023-02-28T07:15:43.925Z,101700.03
2023-02-28T07:18:12.381Z,101707.77
2023-02-28T07:20:42.220Z,101706.06
2023-02-28T07:23:11.765Z,101705.34
2023-02-28T07:25:41.531Z,101703.70
2023-02-28T07:28:11.576Z,101708.27
2023-02-28T07:30:42.310Z,101712.77
2023-02-28T07:33:12.285Z,101714.23
2023-02-28T07:35:42.421Z,101717.89
2023-02-28T07:38:13.946Z,101713.02
2023-02-28T07:40:43.798Z,101711.33
2023-02-28T07:43:13.387Z,101722.16
2023-02-28T07:45:43.184Z,101715.02
2023-02-28T07:48:12.710Z,101721.13
2023-02-28T07:50:42.557Z,101714.41
2023-02-28T07:53:12.354Z,101724.23
2023-02-28T07:55:42.133Z,101721.05
2023-02-28T07:58:11.711Z,101718.96
2023-02-28T08:00:41.546Z,101708.27
2023-02-28T08:03:14.668Z,101711.27
2023-02-28T08:05:44.478Z,101709.06
2023-02-28T08:08:14.353Z,101709.98
2023-02-28T08:10:44.766Z,101708.94
2023-02-28T08:13:14.523Z,101711.95
2023-02-28T08:15:46.279Z,101715.28
2023-02-28T08:18:15.831Z,101718.98
2023-02-28T08:20:45.616Z,101709.28
2023-02-28T08:23:15.582Z,101723.03
2023-02-28T08:25:45.746Z,101721.23
2023-02-28T08:28:15.282Z,101716.22
2023-02-28T08:30:45.056Z,101714.39
2023-02-28T08:33:14.802Z,101709.66
2023-02-28T08:35:44.693Z,101708.32
2023-02-28T08:38:14.348Z,101704.06
2023-02-28T08:40:44.145Z,101700.48
2023-02-28T08:43:13.657Z,101701.09
2023-02-28T08:45:43.525Z,101704.08
2023-02-28T08:48:14.533Z,101704.08
2023-02-28T08:50:48.384Z,101709.38
2023-02-28T08:53:15.346Z,101715.23
2023-02-28T08:55:45.126Z,101709.36
2023-02-28T08:58:14.894Z,101709.36
2023-02-28T09:00:44.717Z,101706.93
2023-02-28T09:03:14.370Z,101702.97
2023-02-28T09:05:45.668Z,101705.08
2023-02-28T09:08:15.480Z,101713.41
2023-02-28T09:10:45.277Z,101707.13
2023-02-28T09:13:14.852Z,101704.31
2023-02-28T09:15:44.661Z,101709.58
2023-02-28T09:18:14.676Z,101709.58
2023-02-28T09:20:45.744Z,101709.68
2023-02-28T09:23:15.786Z,101705.17
2023-02-28T09:25:50.885Z,101706.84
2023-02-28T09:28:21.364Z,101708.72
2023-02-28T09:30:53.990Z,101704.09
2023-02-28T09:33:24.630Z,101701.28
2023-02-28T09:35:57.564Z,101701.51
2023-02-28T09:38:28.831Z,101698.48
2023-02-28T09:41:01.623Z,101697.66
2023-02-28T09:43:34.716Z,101695.20
2023-02-28T09:46:37.092Z,101694.52
2023-02-28T09:49:10.610Z,101690.05
2023-02-28T09:51:46.284Z,101685.92
2023-02-28T09:54:20.073Z,101692.28
2023-02-28T09:56:58.892Z,101693.59
2023-02-28T09:59:44.195Z,101688.70
2023-02-28T10:02:34.895Z,101692.09
2023-02-28T10:05:09.085Z,101691.70
2023-02-28T10:07:58.388Z,101693.95
2023-02-28T10:10:34.422Z,101694.32
2023-02-28T10:13:07.300Z,101690.95
2023-02-28T10:15:38.231Z,101693.87
2023-02-28T10:18:12.186Z,101687.66
2023-02-28T10:20:44.749Z,101690.28
2023-02-28T10:23:29.408Z,101689.72
2023-02-28T10:26:04.786Z,101683.80
2023-02-28T10:28:34.841Z,101685.27
2023-02-28T10:31:06.194Z,101676.95
2023-02-28T10:33:37.227Z,101670.71
2023-02-28T10:36:08.242Z,101669.55
2023-02-28T10:38:40.407Z,101677.89
2023-02-28T10:41:31.440Z,101676.48
2023-02-28T10:44:22.411Z,101672.75
2023-02-28T10:46:53.635Z,101668.92
2023-02-28T10:49:26.857Z,101666.35
2023-02-28T10:52:02.142Z,101669.42
2023-02-28T10:54:36.403Z,101663.19
2023-02-28T10:57:22.254Z,101654.55
2023-02-28T10:59:58.690Z,101665.66
2023-02-28T11:05:06.485Z,101660.58
2023-02-28T11:07:50.443Z,101662.45
2023-02-28T11:10:10.049Z,101651.14
2023-02-28T11:12:51.932Z,101666.38
2023-02-28T11:15:33.460Z,101664.34
2023-02-28T11:18:06.143Z,101659.38
2023-02-28T11:20:37.075Z,101660.02
2023-02-28T11:23:08.928Z,101660.02
2023-02-28T11:25:40.977Z,101656.60
2023-02-28T11:28:28.834Z,101658.09
2023-02-28T11:31:04.430Z,101652.89
2023-02-28T11:33:46.217Z,101652.64
2023-02-28T11:36:22.049Z,101649.34
2023-02-28T11:38:51.601Z,101644.80
2023-02-28T11:41:40.892Z,101648.08
2023-02-28T11:44:24.467Z,101651.72
2023-02-28T11:46:57.310Z,101651.67
2023-02-28T11:49:58.952Z,101651.58
2023-02-28T11:52:44.050Z,101651.58
2023-02-28T11:55:28.674Z,101646.06
2023-02-28T11:58:13.351Z,101639.35
2023-02-28T12:00:48.901Z,101638.48
2023-02-28T12:03:24.571Z,101630.13
2023-02-28T12:06:09.598Z,101630.34
2023-02-28T12:09:07.494Z,101620.27
2023-02-28T12:11:52.818Z,101619.76
2023-02-28T12:14:30.869Z,101621.02
2023-02-28T12:17:15.828Z,101617.86
2023-02-28T12:19:57.446Z,101620.03
2023-02-28T12:22:31.132Z,101620.03
2023-02-28T12:25:06.650Z,101612.77
2023-02-28T12:27:42.025Z,101609.37
2023-02-28T12:30:20.667Z,101605.75
2023-02-28T12:32:53.928Z,101604.20
2023-02-28T12:35:38.313Z,101599.36
2023-02-28T12:38:23.042Z,101597.88
2023-02-28T12:40:58.576Z,101601.63
2023-02-28T12:43:31.400Z,101599.09
2023-02-28T12:46:07.006Z,101601.39
2023-02-28T12:48:48.440Z,101592.27
2023-02-28T12:51:20.572Z,101589.56
2023-02-28T12:54:08.034Z,101587.20
2023-02-28T12:56:55.870Z,101587.61
2023-02-28T12:59:43.565Z,101559.47
2023-02-28T13:02:28.046Z,101559.47
2023-02-28T13:05:06.493Z,101574.09
2023-02-28T13:07:39.343Z,101572.00
2023-02-28T13:10:09.805Z,101568.08
2023-02-28T13:12:42.863Z,101574.44
2023-02-28T13:15:22.981Z,101573.02
2023-02-28T13:17:55.330Z,101581.47
2023-02-28T13:20:33.847Z,101573.48
2023-02-28T13:23:04.003Z,101581.45
2023-02-28T13:25:39.947Z,101578.34
2023-02-28T13:28:12.206Z,101581.00
2023-02-28T13:30:58.228Z,101583.52
2023-02-28T13:33:50.712Z,101577.77
2023-02-28T13:36:23.996Z,101582.53
2023-02-28T13:38:59.934Z,101575.71
2023-02-28T13:41:35.585Z,101581.17
2023-02-28T13:44:12.605Z,101580.14
2023-02-28T13:46:54.718Z,101572.51
2023-02-28T13:49:30.441Z,101571.09
2023-02-28T13:52:16.939Z,101569.92
2023-02-28T13:55:01.938Z,101567.44
2023-02-28T13:57:51.761Z,101572.50
2023-02-28T14:00:39.353Z,101557.58
2023-02-28T14:03:26.899Z,101556.62
2023-02-28T14:06:20.728Z,101548.81
2023-02-28T14:09:03.808Z,101552.52
2023-02-28T14:11:37.145Z,101548.98
2023-02-28T14:14:09.607Z,101546.25
2023-02-28T14:16:46.733Z,101541.74
2023-02-28T14:19:19.732Z,101541.28
2023-02-28T14:21:55.393Z,101536.04
2023-02-28T14:24:44.705Z,101539.92
2023-02-28T14:27:47.110Z,101541.00
2023-02-28T14:30:52.944Z,101532.64
2023-02-28T14:33:38.632Z,101537.47
2023-02-28T14:36:11.460Z,101534.23
2023-02-28T14:38:54.581Z,101531.77
2023-02-28T14:41:27.498Z,101535.00
2023-02-28T14:44:02.661Z,101530.25
2023-02-28T14:46:41.177Z,101532.02
2023-02-28T14:49:32.234Z,101528.75
2023-02-28T14:52:11.038Z,101532.84
2023-02-28T14:54:41.955Z,101526.97
2023-02-28T14:57:35.660Z,101523.38
2023-02-28T15:00:24.803Z,101527.15
2023-02-28T15:02:55.819Z,101525.55
2023-02-28T15:05:31.643Z,101526.97
2023-02-28T15:08:10.209Z,101536.95
2023-02-28T15:10:41.626Z,101536.95
2023-02-28T15:13:14.454Z,101534.44
2023-02-28T15:16:08.247Z,101516.75
2023-02-28T15:18:47.163Z,101516.75
2023-02-28T15:21:19.706Z,101532.01
2023-02-28T15:24:04.322Z,101532.83
2023-02-28T15:26:37.528Z,101533.65
2023-02-28T15:29:15.664Z,101528.63
2023-02-28T15:31:57.099Z,101531.31
2023-02-28T15:37:41.194Z,101528.22
2023-02-28T15:40:26.809Z,101528.22
2023-02-28T15:43:11.421Z,101524.59
2023-02-28T15:45:45.001Z,101508.39
2023-02-28T15:48:23.474Z,101508.39
2023-02-28T15:50:56.331Z,101524.38
2023-02-28T15:53:29.177Z,101519.41
2023-02-28T15:56:05.997Z,101524.98
2023-02-28T15:58:38.137Z,101517.63
2023-02-28T16:01:23.113Z,101519.98
2023-02-28T16:03:55.735Z,101525.53
2023-02-28T16:06:46.850Z,101523.97
2023-02-28T16:09:16.836Z,101522.21
2023-02-28T16:11:49.616Z,101532.14
2023-02-28T16:14:24.052Z,101524.88
2023-02-28T16:16:56.698Z,101526.56
2023-02-28T16:19:27.162Z,101529.50
2023-02-28T16:21:57.879Z,101537.84
2023-02-28T16:24:27.712Z,101539.25
2023-02-28T16:26:58.784Z,101545.36
2023-02-28T16:29:34.374Z,101544.21
2023-02-28T16:32:07.135Z,101538.76
2023-02-28T16:34:37.002Z,101543.38
2023-02-28T16:37:14.120Z,101547.03
2023-02-28T16:39:45.410Z,101547.23
2023-02-28T16:42:26.999Z,101541.73
2023-02-28T16:44:59.053Z,101532.75
2023-02-28T16:47:29.044Z,101540.54
2023-02-28T16:49:58.907Z,101540.54
2023-02-28T16:52:28.713Z,101556.81
2023-02-28T16:54:58.620Z,101550.11
2023-02-28T16:57:28.649Z,101554.19
2023-02-28T16:59:58.959Z,101556.45
2023-02-28T17:02:28.815Z,101563.61
2023-02-28T17:04:58.799Z,101565.03
2023-02-28T17:07:30.131Z,101563.45
2023-02-28T17:10:02.164Z,101569.59
2023-02-28T17:12:34.379Z,101563.28
2023-02-28T17:15:04.239Z,101563.28
2023-02-28T17:17:34.302Z,101575.90
2023-02-28T17:20:05.641Z,101573.83
2023-02-28T17:22:35.502Z,101572.59
2023-02-28T17:25:07.116Z,101579.68
2023-02-28T17:27:36.967Z,101579.81
2023-02-28T17:30:18.697Z,101573.73
2023-02-28T17:32:48.565Z,101574.17
2023-02-28T17:35:18.545Z,101573.78
2023-02-28T17:37:48.334Z,101576.39
2023-02-28T17:40:20.944Z,101577.72
2023-02-28T17:42:52.703Z,101580.75
2023-02-28T17:45:22.422Z,101586.02
2023-02-28T17:47:52.606Z,101585.63
2023-02-28T17:50:24.028Z,101581.69
2023-02-28T17:52:54.181Z,101584.28
2023-02-28T17:55:23.841Z,101588.63
2023-02-28T17:57:53.741Z,101587.34
2023-02-28T18:00:24.977Z,101584.73
2023-02-28T18:02:57.956Z,101585.17
2023-02-28T18:05:28.087Z,101586.46
2023-02-28T18:07:58.389Z,101591.66
2023-02-28T18:10:28.332Z,101589.05
2023-02-28T18:12:58.331Z,101595.11
2023-02-28T18:15:28.164Z,101601.19
2023-02-28T18:17:58.073Z,101599.48
2023-02-28T18:20:29.241Z,101596.02
2023-02-28T18:22:59.152Z,101596.50
2023-02-28T18:25:29.516Z,101597.79
2023-02-28T18:27:59.277Z,101602.60
2023-02-28T18:30:34.205Z,101602.66
2023-02-28T18:33:04.677Z,101605.27
2023-02-28T18:35:37.461Z,101588.45
2023-02-28T18:38:12.355Z,101596.67
2023-02-28T18:40:43.976Z,101596.23
2023-02-28T18:43:13.889Z,101595.80
2023-02-28T18:45:43.760Z,101599.70
2023-02-28T18:48:15.020Z,101601.87
2023-02-28T18:50:44.900Z,101603.58
2023-02-28T18:53:14.855Z,101602.60
2023-02-28T18:55:44.894Z,101600.55
2023-02-28T18:58:14.757Z,101608.35
2023-02-28T19:00:44.884Z,101610.98
2023-02-28T19:03:15.028Z,101605.80
2023-02-28T19:05:47.120Z,101600.20
2023-02-28T19:08:16.826Z,101612.30
2023-02-28T19:10:49.560Z,101609.71
2023-02-28T19:13:20.948Z,101605.38
2023-02-28T19:15:53.771Z,101602.79
2023-02-28T19:18:22.502Z,101604.94
2023-02-28T19:20:52.430Z,101595.44
2023-02-28T19:23:22.318Z,101602.78
2023-02-28T19:25:53.006Z,101598.05
2023-02-28T19:28:23.107Z,101601.93
2023-02-28T19:30:53.194Z,101604.07
2023-02-28T19:33:23.220Z,101603.64
2023-02-28T19:35:53.173Z,101606.22
2023-02-28T19:38:23.131Z,101603.66
2023-02-28T19:40:55.978Z,101605.80
2023-02-28T19:43:26.082Z,101604.06
2023-02-28T19:45:55.722Z,101605.36
2023-02-28T19:48:28.037Z,101610.53
2023-02-28T19:51:07.206Z,101610.52
2023-02-28T19:53:42.558Z,101613.13
2023-02-28T19:56:13.118Z,101611.38
2023-02-28T19:58:42.723Z,101613.95
2023-02-28T20:01:20.719Z,101613.52
2023-02-28T20:03:52.540Z,101617.40
2023-02-28T20:06:22.067Z,101618.67
2023-02-28T20:08:53.099Z,101620.38
2023-02-28T20:11:22.889Z,101620.81
2023-02-28T20:13:57.173Z,101616.06
2023-02-28T20:16:28.927Z,101617.42
2023-02-28T20:18:59.490Z,101613.54
2023-02-28T20:21:30.532Z,101601.91
2023-02-28T20:23:59.421Z,101604.03
2023-02-28T20:26:29.241Z,101606.16
2023-02-28T20:28:58.925Z,101597.94
2023-02-28T20:31:30.510Z,101604.80
2023-02-28T20:34:00.450Z,101604.80
2023-02-28T20:36:30.367Z,101602.24
2023-02-28T20:39:00.556Z,101603.19
2023-02-28T20:41:30.310Z,101603.13
2023-02-28T20:44:02.537Z,101606.09
2023-02-28T20:46:34.136Z,101611.66
2023-02-28T20:49:03.806Z,101614.62
2023-02-28T20:51:33.502Z,101607.70
2023-02-28T20:54:05.342Z,101607.28
2023-02-28T20:56:34.631Z,101609.89
2023-02-28T20:59:04.243Z,101613.67
2023-02-28T21:01:34.190Z,101611.52
2023-02-28T21:04:06.908Z,101600.05
2023-02-28T21:06:39.145Z,101611.59
2023-02-28T21:09:11.319Z,101615.81
2023-02-28T21:11:41.207Z,101614.89
2023-02-28T21:14:14.812Z,101619.63
2023-02-28T21:16:44.896Z,101611.00
2023-02-28T21:19:14.778Z,101624.39
2023-02-28T21:21:47.767Z,101616.66
2023-02-28T21:24:19.749Z,101609.69
2023-02-28T21:26:49.700Z,101599.41
2023-02-28T21:29:19.445Z,101599.41
2023-02-28T21:31:53.733Z,101602.34
2023-02-28T21:34:23.524Z,101607.94
2023-02-28T21:36:54.367Z,101606.60
2023-02-28T21:39:28.721Z,101610.92
2023-02-28T21:42:01.511Z,101598.08
2023-02-28T21:44:30.816Z,101594.62
2023-02-28T21:47:03.525Z,101592.07
2023-02-28T21:49:33.554Z,101592.00
2023-02-28T21:52:03.990Z,101594.98
2023-02-28T21:54:34.079Z,101593.62
2023-02-28T21:57:03.688Z,101593.62
2023-02-28T21:59:33.556Z,101602.13
2023-02-28T22:02:05.274Z,101600.84
2023-02-28T22:04:35.073Z,101603.38
2023-02-28T22:07:05.038Z,101609.73
2023-02-28T22:09:34.909Z,101616.66
2023-02-28T22:12:06.144Z,101617.52
2023-02-28T22:14:35.013Z,101618.33
2023-02-28T22:17:04.646Z,101614.89
2023-02-28T22:19:36.010Z,101615.76
2023-02-28T22:22:06.507Z,101619.63
2023-02-28T22:24:36.276Z,101616.60
2023-02-28T22:27:06.672Z,101616.57
2023-02-28T22:29:57.809Z,101624.20
2023-02-28T22:33:20.211Z,101624.20
2023-02-28T22:36:18.603Z,101624.20
2023-02-28T22:42:21.470Z,101624.20
2023-02-28T22:47:09.419Z,101624.20
2023-02-28T22:52:07.783Z,101624.20
2023-02-28T22:54:37.487Z,101624.20
2023-02-28T22:57:49.900Z,101656.47
2023-02-28T23:00:20.314Z,101656.47
2023-02-28T23:02:50.279Z,101657.89
2023-02-28T23:05:20.030Z,101651.02
2023-02-28T23:07:49.636Z,101651.42
2023-02-28T23:10:19.756Z,101647.53
2023-02-28T23:12:53.264Z,101653.52
2023-02-28T23:15:23.380Z,101664.27
2023-02-28T23:17:53.010Z,101656.14
2023-02-28T23:20:22.720Z,101657.43
2023-02-28T23:22:52.399Z,101653.98
2023-02-28T23:25:22.708Z,101649.69
2023-02-28T23:27:52.255Z,101648.80
2023-02-28T23:30:21.904Z,101650.94
2023-02-28T23:32:51.443Z,101647.74
2023-02-28T23:35:21.070Z,101643.78
2023-02-28T23:37:51.865Z,101641.11
2023-02-28T23:40:20.785Z,101646.63
2023-02-28T23:42:51.080Z,101654.71
2023-02-28T23:45:20.947Z,101654.79
2023-02-28T23:47:50.521Z,101654.79
2023-02-28T23:50:20.185Z,101654.46
2023-02-28T23:52:49.953Z,101652.82
2023-02-28T23:55:20.589Z,101656.38
2023-02-28T23:57:50.389Z,101648.30
